createdAt,value
2019-02-06T00:01:53.942Z,9.23
2019-02-06T00:04:22.586Z,9.37
2019-02-06T00:06:51.204Z,9.70
2019-02-06T00:09:19.835Z,10.20
2019-02-06T00:11:48.482Z,10.37
2019-02-06T00:14:17.137Z,10.93
2019-02-06T00:16:45.835Z,11.37
2019-02-06T00:19:14.492Z,10.33
2019-02-06T00:21:43.116Z,10.43
2019-02-06T00:24:12.160Z,9.57
2019-02-06T00:26:40.786Z,9.53
2019-02-06T00:29:09.655Z,11.53
2019-02-06T00:31:38.238Z,8.90
2019-02-06T00:34:06.931Z,9.63
2019-02-06T00:36:38.707Z,10.03
2019-02-06T00:39:08.986Z,9.57
2019-02-06T00:41:37.580Z,9.20
2019-02-06T00:44:08.917Z,8.90
2019-02-06T00:46:37.563Z,9.27
2019-02-06T00:49:06.115Z,8.33
2019-02-06T00:51:34.690Z,9.90
2019-02-06T00:54:03.228Z,10.27
2019-02-06T00:56:33.348Z,9.83
2019-02-06T00:59:05.393Z,9.13
2019-02-06T01:01:33.978Z,9.10
2019-02-06T01:04:05.554Z,8.33
2019-02-06T01:06:34.194Z,9.67
2019-02-06T01:09:02.810Z,9.20
2019-02-06T01:11:31.386Z,9.93
2019-02-06T01:14:01.973Z,10.03
2019-02-06T01:16:30.644Z,9.40
2019-02-06T01:18:59.200Z,9.63
2019-02-06T01:21:28.149Z,9.13
2019-02-06T01:24:00.176Z,9.70
2019-02-06T01:26:28.782Z,10.10
2019-02-06T01:28:57.658Z,9.23
2019-02-06T01:31:26.408Z,8.90
2019-02-06T01:33:55.365Z,9.47
2019-02-06T01:36:24.327Z,11.00
2019-02-06T01:38:52.880Z,11.07
2019-02-06T01:41:21.454Z,9.87
2019-02-06T01:43:50.002Z,10.50
2019-02-06T01:46:18.913Z,9.43
2019-02-06T01:48:47.536Z,9.43
2019-02-06T01:51:16.184Z,12.00
2019-02-06T01:53:45.366Z,10.30
2019-02-06T01:56:13.950Z,11.67
2019-02-06T01:58:42.508Z,10.03
2019-02-06T02:01:11.503Z,9.67
2019-02-06T02:03:40.075Z,13.07
2019-02-06T02:06:09.029Z,10.77
2019-02-06T02:08:39.313Z,12.00
2019-02-06T02:11:07.964Z,12.60
2019-02-06T02:13:36.505Z,12.57
2019-02-06T02:16:05.402Z,10.57
2019-02-06T02:18:33.984Z,10.23
2019-02-06T02:21:05.680Z,10.70
2019-02-06T02:23:34.337Z,10.33
2019-02-06T02:26:02.886Z,11.13
2019-02-06T02:28:31.466Z,10.67
2019-02-06T02:31:03.167Z,10.67
2019-02-06T02:33:31.915Z,11.30
2019-02-06T02:36:15.278Z,12.10
2019-02-06T02:38:33.882Z,12.03
2019-02-06T02:41:05.501Z,12.60
2019-02-06T02:43:34.080Z,11.67
2019-02-06T02:46:02.631Z,11.20
2019-02-06T02:48:33.990Z,11.20
2019-02-06T02:51:05.822Z,12.13
2019-02-06T02:53:34.645Z,13.10
2019-02-06T02:56:03.202Z,11.90
2019-02-06T02:58:34.454Z,11.10
2019-02-06T03:01:16.893Z,12.33
2019-02-06T03:03:50.665Z,13.70
2019-02-06T03:06:27.477Z,12.20
2019-02-06T03:08:49.520Z,12.20
2019-02-06T03:11:18.078Z,13.70
2019-02-06T03:13:46.660Z,12.97
2019-02-06T03:16:15.213Z,14.30
2019-02-06T03:18:43.865Z,12.17
2019-02-06T03:21:15.161Z,14.20
2019-02-06T03:23:43.811Z,14.07
2019-02-06T03:26:12.988Z,13.87
2019-02-06T03:28:44.209Z,14.67
2019-02-06T03:31:12.781Z,14.10
2019-02-06T03:33:41.357Z,14.03
2019-02-06T03:36:09.909Z,14.93
2019-02-06T03:38:38.561Z,13.80
2019-02-06T03:41:07.189Z,12.80
2019-02-06T03:43:36.155Z,14.57
2019-02-06T03:46:07.533Z,15.20
2019-02-06T03:48:36.115Z,14.17
2019-02-06T03:51:05.389Z,14.67
2019-02-06T03:53:33.971Z,12.47
2019-02-06T03:56:08.328Z,14.90
2019-02-06T03:58:36.974Z,14.70
2019-02-06T04:01:05.779Z,12.50
2019-02-06T04:03:34.365Z,13.20
2019-02-06T04:06:06.740Z,13.73
2019-02-06T04:08:35.396Z,15.90
2019-02-06T04:11:04.025Z,13.70
2019-02-06T04:13:35.929Z,15.20
2019-02-06T04:16:04.647Z,14.00
2019-02-06T04:18:33.258Z,14.93
2019-02-06T04:21:05.138Z,14.70
2019-02-06T04:23:33.786Z,16.10
2019-02-06T04:26:05.489Z,16.07
2019-02-06T04:28:34.148Z,15.93
2019-02-06T04:31:02.706Z,15.33
2019-02-06T04:33:34.018Z,16.67
2019-02-06T04:36:05.641Z,16.10
2019-02-06T04:38:34.271Z,18.80
2019-02-06T04:41:02.856Z,17.17
2019-02-06T04:43:31.434Z,16.13
2019-02-06T04:46:02.022Z,16.93
2019-02-06T04:48:32.369Z,16.50
2019-02-06T04:51:00.978Z,17.90
2019-02-06T04:53:31.528Z,17.93
2019-02-06T04:56:01.969Z,17.97
2019-02-06T04:58:32.418Z,19.73
2019-02-06T05:01:01.070Z,16.93
2019-02-06T05:03:32.445Z,19.03
2019-02-06T05:06:01.072Z,17.30
2019-02-06T05:08:29.617Z,18.97
2019-02-06T05:10:58.284Z,20.73
2019-02-06T05:13:26.843Z,21.17
2019-02-06T05:15:55.423Z,19.77
2019-02-06T05:18:24.053Z,20.37
2019-02-06T05:20:52.815Z,22.90
2019-02-06T05:23:21.443Z,19.37
2019-02-06T05:25:50.065Z,20.53
2019-02-06T05:28:18.727Z,19.70
2019-02-06T05:30:47.287Z,21.57
2019-02-06T05:33:15.856Z,20.20
2019-02-06T05:35:44.470Z,20.20
2019-02-06T05:38:13.029Z,20.87
2019-02-06T05:40:41.624Z,23.60
2019-02-06T05:43:10.201Z,22.23
2019-02-06T05:45:38.858Z,20.00
2019-02-06T05:48:07.422Z,20.50
2019-02-06T05:50:36.005Z,22.30
2019-02-06T05:53:05.081Z,22.70
2019-02-06T05:55:33.738Z,22.70
2019-02-06T05:58:02.665Z,21.37
2019-02-06T06:00:35.307Z,22.87
2019-02-06T06:03:04.239Z,23.13
2019-02-06T06:05:32.817Z,22.20
2019-02-06T06:08:01.381Z,24.87
2019-02-06T06:10:32.567Z,24.30
2019-02-06T06:13:03.866Z,23.27
2019-02-06T06:15:34.352Z,23.47
2019-02-06T06:18:02.909Z,22.00
2019-02-06T06:20:31.504Z,23.87
2019-02-06T06:23:02.373Z,21.70
2019-02-06T06:25:33.947Z,21.40
2019-02-06T06:28:05.540Z,23.40
2019-02-06T06:30:34.119Z,24.63
2019-02-06T06:33:02.764Z,25.03
2019-02-06T06:35:31.492Z,22.83
2019-02-06T06:38:03.031Z,24.50
2019-02-06T06:40:32.010Z,22.73
2019-02-06T06:43:02.314Z,23.10
2019-02-06T06:45:30.956Z,24.03
2019-02-06T06:47:59.586Z,25.50
2019-02-06T06:50:28.165Z,23.30
2019-02-06T06:52:56.805Z,24.23
2019-02-06T06:55:26.074Z,24.70
2019-02-06T06:57:54.652Z,25.93
2019-02-06T07:00:28.083Z,25.13
2019-02-06T07:02:57.147Z,26.10
2019-02-06T07:05:25.892Z,25.37
2019-02-06T07:07:54.811Z,27.50
2019-02-06T07:10:23.708Z,25.70
2019-02-06T07:12:52.437Z,26.83
2019-02-06T07:15:23.914Z,27.60
2019-02-06T07:17:52.562Z,27.17
2019-02-06T07:20:21.355Z,27.30
2019-02-06T07:22:50.062Z,27.40
2019-02-06T07:25:20.248Z,27.10
2019-02-06T07:27:49.010Z,25.90
2019-02-06T07:30:32.279Z,26.93
2019-02-06T07:33:00.922Z,29.53
2019-02-06T07:35:32.684Z,28.00
2019-02-06T07:38:03.053Z,24.27
2019-02-06T07:40:33.349Z,27.67
2019-02-06T07:43:05.098Z,27.37
2019-02-06T07:45:33.717Z,28.70
2019-02-06T07:48:03.907Z,26.77
2019-02-06T07:50:35.598Z,26.20
2019-02-06T07:53:04.256Z,25.20
2019-02-06T07:55:32.856Z,24.67
2019-02-06T07:58:03.220Z,25.63
2019-02-06T08:00:34.656Z,23.73
2019-02-06T08:03:03.306Z,25.07
2019-02-06T08:05:34.534Z,23.40
2019-02-06T08:08:03.117Z,24.40
2019-02-06T08:10:34.588Z,25.53
2019-02-06T08:13:03.736Z,22.90
2019-02-06T08:15:33.938Z,23.70
2019-02-06T08:18:06.234Z,22.50
2019-02-06T08:20:35.228Z,23.00
2019-02-06T08:23:03.885Z,23.67
2019-02-06T08:25:33.990Z,23.50
2019-02-06T08:28:05.880Z,22.37
2019-02-06T08:30:37.186Z,21.43
2019-02-06T08:33:06.210Z,19.47
2019-02-06T08:35:35.045Z,20.30
2019-02-06T08:38:03.699Z,21.43
2019-02-06T08:40:33.183Z,20.00
2019-02-06T08:43:04.944Z,20.60
2019-02-06T08:45:33.565Z,22.67
2019-02-06T08:48:02.241Z,21.93
2019-02-06T08:50:31.315Z,21.43
2019-02-06T08:53:03.063Z,18.43
2019-02-06T08:55:33.269Z,18.27
2019-02-06T08:58:03.394Z,18.77
2019-02-06T09:00:34.441Z,21.53
2019-02-06T09:03:03.563Z,20.27
2019-02-06T09:05:32.236Z,19.80
2019-02-06T09:08:00.983Z,20.20
2019-02-06T09:10:31.055Z,18.47
2019-02-06T09:13:02.222Z,18.73
2019-02-06T09:15:31.216Z,21.70
2019-02-06T09:18:01.783Z,18.23
2019-02-06T09:20:31.469Z,19.70
2019-02-06T09:23:01.751Z,19.83
2019-02-06T09:25:30.471Z,19.23
2019-02-06T09:28:01.400Z,18.60
2019-02-06T09:30:31.830Z,18.83
2019-02-06T09:33:03.195Z,16.97
2019-02-06T09:35:33.267Z,17.00
2019-02-06T09:38:05.549Z,15.50
2019-02-06T09:40:34.102Z,16.67
2019-02-06T09:43:05.498Z,17.20
2019-02-06T09:45:34.076Z,16.80
2019-02-06T09:48:03.476Z,16.63
2019-02-06T09:50:36.710Z,17.20
2019-02-06T09:53:05.503Z,15.83
2019-02-06T09:55:34.159Z,14.20
2019-02-06T09:58:06.185Z,14.13
2019-02-06T10:00:36.913Z,14.73
2019-02-06T10:03:08.858Z,15.30
2019-02-06T10:05:37.600Z,15.63
2019-02-06T10:08:06.511Z,14.33
2019-02-06T10:10:38.216Z,14.80
2019-02-06T10:13:07.515Z,14.93
2019-02-06T10:15:38.341Z,15.50
2019-02-06T10:18:07.339Z,13.60
2019-02-06T10:20:38.460Z,14.70
2019-02-06T10:23:07.755Z,14.23
2019-02-06T10:25:36.873Z,14.00
2019-02-06T10:28:05.800Z,15.33
2019-02-06T10:30:43.162Z,14.53
2019-02-06T10:33:11.851Z,14.93
2019-02-06T10:35:40.425Z,15.10
2019-02-06T10:38:09.829Z,13.13
2019-02-06T10:40:39.127Z,15.83
2019-02-06T10:43:10.624Z,13.00
2019-02-06T10:45:39.658Z,13.90
2019-02-06T10:48:08.459Z,13.73
2019-02-06T10:50:43.178Z,12.97
2019-02-06T10:53:11.899Z,12.70
2019-02-06T10:55:40.543Z,14.20
2019-02-06T10:58:09.160Z,13.53
2019-02-06T11:00:41.729Z,12.33
2019-02-06T11:03:10.446Z,13.67
2019-02-06T11:05:39.578Z,12.10
2019-02-06T11:08:08.306Z,13.70
2019-02-06T11:10:36.886Z,12.03
2019-02-06T11:13:06.061Z,12.50
2019-02-06T11:15:38.123Z,13.20
2019-02-06T11:18:07.513Z,13.20
2019-02-06T11:20:38.521Z,11.43
2019-02-06T11:23:08.314Z,13.03
2019-02-06T11:25:37.415Z,12.33
2019-02-06T11:28:07.310Z,12.73
2019-02-06T11:30:37.981Z,11.97
2019-02-06T11:33:08.076Z,8.57
2019-02-06T11:35:37.087Z,9.33
2019-02-06T11:38:08.871Z,10.07
2019-02-06T11:40:37.576Z,8.77
2019-02-06T11:43:06.670Z,9.80
2019-02-06T11:45:36.584Z,9.50
2019-02-06T11:48:05.976Z,9.70
2019-02-06T11:50:39.320Z,9.73
2019-02-06T11:53:09.503Z,9.20
2019-02-06T11:55:38.150Z,9.33
2019-02-06T11:58:10.618Z,8.30
2019-02-06T12:00:48.376Z,9.43
2019-02-06T12:03:16.382Z,8.37
2019-02-06T12:05:44.945Z,7.63
2019-02-06T12:08:13.497Z,8.07
2019-02-06T12:10:42.215Z,7.67
2019-02-06T12:13:10.835Z,7.83
2019-02-06T12:15:39.549Z,8.30
2019-02-06T12:18:08.238Z,7.37
2019-02-06T12:20:37.148Z,8.53
2019-02-06T12:23:06.321Z,8.17
2019-02-06T12:25:35.335Z,8.50
2019-02-06T12:28:05.285Z,8.07
2019-02-06T12:30:36.521Z,8.10
2019-02-06T12:33:08.012Z,7.93
2019-02-06T12:35:36.558Z,8.60
2019-02-06T12:38:05.788Z,8.40
2019-02-06T12:40:37.736Z,9.13
2019-02-06T12:43:10.363Z,8.47
2019-02-06T12:45:37.772Z,8.20
2019-02-06T12:48:09.418Z,7.90
2019-02-06T12:50:38.405Z,9.47
2019-02-06T12:53:07.506Z,8.57
2019-02-06T12:55:40.795Z,8.87
2019-02-06T12:58:09.798Z,8.07
2019-02-06T13:00:45.246Z,8.70
2019-02-06T13:03:13.990Z,8.13
2019-02-06T13:05:42.674Z,8.13
2019-02-06T13:08:12.881Z,9.30
2019-02-06T13:10:41.866Z,10.40
2019-02-06T13:13:10.443Z,8.50
2019-02-06T13:15:39.117Z,7.20
2019-02-06T13:18:07.795Z,8.23
2019-02-06T13:20:37.498Z,7.90
2019-02-06T13:23:07.119Z,8.87
2019-02-06T13:25:35.742Z,8.27
2019-02-06T13:28:05.164Z,7.60
2019-02-06T13:30:37.454Z,7.13
2019-02-06T13:33:07.765Z,8.13
2019-02-06T13:35:37.281Z,8.57
2019-02-06T13:38:08.377Z,7.83
2019-02-06T13:40:45.771Z,9.27
2019-02-06T13:43:08.107Z,7.23
2019-02-06T13:45:39.853Z,8.03
2019-02-06T13:48:11.342Z,8.37
2019-02-06T13:50:40.119Z,8.60
2019-02-06T13:53:09.238Z,9.57
2019-02-06T13:55:37.954Z,8.30
2019-02-06T13:58:07.355Z,9.73
2019-02-06T14:00:38.960Z,8.07
2019-02-06T14:03:08.274Z,6.53
2019-02-06T14:05:39.148Z,10.00
2019-02-06T14:08:15.359Z,8.77
2019-02-06T14:10:44.453Z,7.87
2019-02-06T14:13:16.128Z,8.07
2019-02-06T14:15:47.115Z,6.90
2019-02-06T14:18:15.765Z,9.10
2019-02-06T14:20:45.876Z,8.23
2019-02-06T14:23:45.401Z,7.10
2019-02-06T14:26:19.920Z,7.70
2019-02-06T14:29:06.596Z,8.33
2019-02-06T14:31:38.193Z,7.93
2019-02-06T14:34:43.560Z,7.00
2019-02-06T14:37:20.480Z,7.20
2019-02-06T14:40:06.660Z,7.97
2019-02-06T14:42:59.519Z,8.87
2019-02-06T14:45:51.535Z,8.30
2019-02-06T14:48:25.908Z,8.57
2019-02-06T14:51:09.966Z,8.37
2019-02-06T14:53:44.420Z,8.90
2019-02-06T14:56:37.418Z,7.90
2019-02-06T14:59:24.376Z,9.00
2019-02-06T15:02:23.239Z,8.50
2019-02-06T15:05:03.793Z,9.40
2019-02-06T15:07:44.364Z,9.93
2019-02-06T15:10:35.870Z,10.50
2019-02-06T15:13:12.375Z,9.50
2019-02-06T15:16:17.910Z,10.30
2019-02-06T15:18:55.528Z,8.43
2019-02-06T15:21:45.039Z,10.10
2019-02-06T15:24:37.661Z,9.20
2019-02-06T15:27:30.534Z,9.80
2019-02-06T15:30:19.752Z,10.23
2019-02-06T15:33:07.552Z,9.20
2019-02-06T15:36:04.859Z,8.53
2019-02-06T15:38:39.177Z,8.90
2019-02-06T15:41:14.354Z,9.33
2019-02-06T15:43:58.074Z,9.27
2019-02-06T15:46:44.347Z,9.27
2019-02-06T15:49:40.613Z,11.87
2019-02-06T15:52:36.608Z,8.90
2019-02-06T15:55:28.183Z,9.60
2019-02-06T15:58:22.618Z,10.70
2019-02-06T16:00:54.525Z,11.90
2019-02-06T16:03:30.615Z,10.10
2019-02-06T16:06:12.902Z,13.13
2019-02-06T16:08:50.528Z,12.40
2019-02-06T16:11:42.024Z,11.80
2019-02-06T16:14:43.802Z,11.90
2019-02-06T16:17:27.335Z,10.90
2019-02-06T16:20:14.060Z,12.30
2019-02-06T16:22:54.222Z,11.30
2019-02-06T16:25:37.852Z,12.43
2019-02-06T16:28:26.722Z,12.53
2019-02-06T16:31:23.150Z,11.00
2019-02-06T16:34:22.166Z,13.00
2019-02-06T16:37:02.186Z,11.93
2019-02-06T16:39:33.816Z,11.10
2019-02-06T16:42:05.444Z,12.10
2019-02-06T16:44:46.043Z,12.20
2019-02-06T16:47:45.622Z,12.93
2019-02-06T16:50:32.307Z,11.47
2019-02-06T16:53:09.774Z,12.53
2019-02-06T16:56:02.503Z,10.67
2019-02-06T16:58:36.887Z,11.90
2019-02-06T17:01:17.105Z,10.73
2019-02-06T17:03:57.998Z,12.20
2019-02-06T17:06:29.609Z,10.87
2019-02-06T17:09:23.076Z,11.20
2019-02-06T17:12:04.097Z,11.40
2019-02-06T17:14:40.373Z,12.00
2019-02-06T17:17:14.632Z,11.67
2019-02-06T17:20:17.862Z,11.20
2019-02-06T17:23:04.435Z,11.13
2019-02-06T17:25:41.665Z,9.90
2019-02-06T17:28:19.051Z,10.27
2019-02-06T17:30:53.126Z,10.40
2019-02-06T17:33:52.015Z,10.43
2019-02-06T17:36:32.658Z,11.50
2019-02-06T17:39:23.871Z,10.37
2019-02-06T17:41:49.752Z,12.87
2019-02-06T17:44:24.422Z,10.47
2019-02-06T17:46:56.055Z,12.27
2019-02-06T17:49:48.743Z,10.73
2019-02-06T17:52:55.159Z,10.83
2019-02-06T17:55:26.042Z,10.90
2019-02-06T17:57:55.465Z,10.60
2019-02-06T18:00:38.941Z,10.90
2019-02-06T18:03:11.267Z,12.17
2019-02-06T18:05:40.645Z,11.13
2019-02-06T18:08:09.213Z,10.73
2019-02-06T18:10:37.785Z,9.90
2019-02-06T18:13:07.292Z,11.40
2019-02-06T18:15:36.231Z,11.50
2019-02-06T18:18:06.357Z,11.30
2019-02-06T18:20:34.990Z,11.30
2019-02-06T18:23:04.224Z,12.73
2019-02-06T18:25:32.787Z,10.47
2019-02-06T18:28:01.830Z,12.40
2019-02-06T18:30:35.501Z,12.17
2019-02-06T18:33:07.352Z,10.10
2019-02-06T18:35:36.055Z,13.10
2019-02-06T18:38:06.705Z,11.93
2019-02-06T18:40:35.353Z,10.67
2019-02-06T18:43:04.356Z,11.10
2019-02-06T18:45:32.970Z,10.40
2019-02-06T18:48:04.583Z,11.13
2019-02-06T18:50:34.679Z,12.30
2019-02-06T18:53:07.386Z,13.50
2019-02-06T18:55:36.347Z,11.37
2019-02-06T18:58:07.322Z,11.97
2019-02-06T19:00:39.356Z,11.93
2019-02-06T19:03:19.564Z,11.43
2019-02-06T19:05:48.772Z,11.00
2019-02-06T19:08:20.446Z,12.77
2019-02-06T19:10:49.929Z,13.17
2019-02-06T19:13:18.952Z,11.90
2019-02-06T19:15:56.227Z,11.87
2019-02-06T19:18:17.878Z,10.40
2019-02-06T19:20:46.799Z,11.23
2019-02-06T19:23:15.555Z,12.13
2019-02-06T19:25:44.208Z,13.13
2019-02-06T19:28:13.088Z,13.47
2019-02-06T19:30:43.588Z,11.00
2019-02-06T19:33:12.241Z,12.23
2019-02-06T19:35:42.099Z,13.10
2019-02-06T19:38:10.827Z,12.43
2019-02-06T19:40:39.402Z,12.53
2019-02-06T19:43:07.962Z,12.93
2019-02-06T19:45:36.995Z,12.07
2019-02-06T19:48:15.801Z,11.80
2019-02-06T19:50:39.279Z,12.10
2019-02-06T19:53:07.982Z,13.03
2019-02-06T19:55:36.845Z,11.80
2019-02-06T19:58:09.542Z,12.57
2019-02-06T20:00:38.365Z,12.17
2019-02-06T20:03:10.293Z,11.70
2019-02-06T20:05:41.586Z,13.13
2019-02-06T20:08:10.695Z,11.23
2019-02-06T20:10:45.230Z,11.10
2019-02-06T20:13:14.681Z,11.97
2019-02-06T20:15:43.734Z,12.23
2019-02-06T20:18:12.687Z,12.60
2019-02-06T20:20:41.327Z,11.53
2019-02-06T20:23:10.288Z,14.30
2019-02-06T20:25:38.948Z,13.97
2019-02-06T20:28:07.590Z,13.03
2019-02-06T20:30:37.227Z,12.17
2019-02-06T20:33:10.564Z,11.10
2019-02-06T20:35:36.694Z,12.73
2019-02-06T20:38:05.403Z,12.00
2019-02-06T20:40:36.631Z,12.90
2019-02-06T20:43:05.818Z,10.63
2019-02-06T20:45:34.769Z,13.07
2019-02-06T20:48:03.422Z,11.10
2019-02-06T20:50:38.790Z,12.53
2019-02-06T20:53:07.499Z,13.20
2019-02-06T20:55:36.084Z,11.67
2019-02-06T20:58:04.811Z,13.43
2019-02-06T21:00:41.767Z,13.17
2019-02-06T21:03:10.796Z,12.27
2019-02-06T21:05:39.560Z,13.70
2019-02-06T21:08:08.373Z,12.20
2019-02-06T21:10:37.395Z,12.73
2019-02-06T21:13:06.796Z,12.70
2019-02-06T21:15:35.716Z,13.60
2019-02-06T21:18:05.065Z,11.87
2019-02-06T21:20:33.661Z,12.93
2019-02-06T21:23:03.723Z,13.70
2019-02-06T21:25:32.757Z,11.43
2019-02-06T21:28:01.329Z,11.53
2019-02-06T21:30:40.996Z,11.90
2019-02-06T21:33:09.655Z,11.20
2019-02-06T21:35:38.708Z,12.40
2019-02-06T21:38:07.740Z,11.80
2019-02-06T21:40:37.464Z,12.70
2019-02-06T21:43:06.959Z,11.47
2019-02-06T21:45:35.678Z,12.60
2019-02-06T21:48:05.042Z,12.73
2019-02-06T21:50:34.032Z,12.80
2019-02-06T21:53:05.366Z,12.17
2019-02-06T21:55:34.376Z,12.73
2019-02-06T21:58:02.935Z,13.47
2019-02-06T22:00:52.392Z,11.17
2019-02-06T22:03:21.043Z,12.70
2019-02-06T22:05:50.104Z,12.63
2019-02-06T22:08:18.661Z,11.23
2019-02-06T22:10:47.222Z,12.77
2019-02-06T22:13:15.787Z,12.20
2019-02-06T22:15:44.433Z,12.20
2019-02-06T22:18:13.307Z,10.70
2019-02-06T22:20:41.871Z,11.00
2019-02-06T22:23:10.485Z,10.83
2019-02-06T22:25:39.143Z,13.00
2019-02-06T22:28:08.022Z,12.77
2019-02-06T22:30:36.627Z,13.47
2019-02-06T22:33:05.562Z,12.07
2019-02-06T22:35:34.286Z,12.60
2019-02-06T22:38:02.857Z,11.70
2019-02-06T22:40:31.513Z,11.87
2019-02-06T22:43:02.891Z,11.10
2019-02-06T22:45:34.147Z,10.90
2019-02-06T22:48:03.101Z,12.30
2019-02-06T22:50:33.188Z,11.90
2019-02-06T22:53:01.958Z,10.73
2019-02-06T22:55:32.221Z,11.40
2019-02-06T22:58:00.856Z,10.17
2019-02-06T23:00:50.417Z,11.23
2019-02-06T23:03:25.337Z,10.40
2019-02-06T23:05:53.965Z,10.00
2019-02-06T23:08:25.524Z,10.60
2019-02-06T23:10:54.145Z,11.77
2019-02-06T23:13:22.830Z,11.50
2019-02-06T23:15:51.457Z,10.80
2019-02-06T23:18:20.096Z,11.47
2019-02-06T23:20:48.864Z,10.77
2019-02-06T23:23:17.476Z,9.90
2019-02-06T23:25:46.040Z,9.23
2019-02-06T23:28:14.992Z,10.17
2019-02-06T23:30:43.634Z,9.23
2019-02-06T23:33:12.364Z,9.80
2019-02-06T23:35:40.916Z,10.20
2019-02-06T23:38:09.649Z,10.10
2019-02-06T23:40:38.276Z,10.50
2019-02-06T23:43:07.266Z,10.50
2019-02-06T23:45:35.960Z,9.70
2019-02-06T23:48:05.273Z,11.07
2019-02-06T23:50:33.912Z,10.87
2019-02-06T23:53:06.323Z,11.20
2019-02-06T23:55:34.951Z,10.60
2019-02-06T23:58:03.812Z,10.77
